createdAt,value
2018-09-05T00:02:07.244Z,64.60
2018-09-05T00:04:41.707Z,64.80
2018-09-05T00:07:16.142Z,64.70
2018-09-05T00:09:50.481Z,64.70
2018-09-05T00:12:24.875Z,64.70
2018-09-05T00:14:59.278Z,64.70
2018-09-05T00:17:33.651Z,64.70
2018-09-05T00:20:08.019Z,64.70
2018-09-05T00:22:42.398Z,64.70
2018-09-05T00:25:16.765Z,64.60
2018-09-05T00:27:51.117Z,64.80
2018-09-05T00:30:25.577Z,64.90
2018-09-05T00:32:59.936Z,64.90
2018-09-05T00:35:34.470Z,65.00
2018-09-05T00:38:08.820Z,65.00
2018-09-05T00:40:43.154Z,65.00
2018-09-05T00:43:17.520Z,65.20
2018-09-05T00:45:51.869Z,65.20
2018-09-05T00:48:26.222Z,65.30
2018-09-05T00:51:00.589Z,65.30
2018-09-05T00:53:35.011Z,65.20
2018-09-05T00:56:09.397Z,65.20
2018-09-05T00:58:43.789Z,65.20
2018-09-05T01:01:18.160Z,65.30
2018-09-05T01:03:52.525Z,65.30
2018-09-05T01:06:26.868Z,65.20
2018-09-05T01:09:01.245Z,65.20
2018-09-05T01:11:35.626Z,65.10
2018-09-05T01:14:09.985Z,65.00
2018-09-05T01:16:44.338Z,65.00
2018-09-05T01:19:18.731Z,64.90
2018-09-05T01:21:53.075Z,65.00
2018-09-05T01:24:27.478Z,65.00
2018-09-05T01:27:01.863Z,65.00
2018-09-05T01:29:37.738Z,65.00
2018-09-05T01:32:12.553Z,65.00
2018-09-05T01:34:47.195Z,65.00
2018-09-05T01:37:21.835Z,64.90
2018-09-05T01:39:56.254Z,64.90
2018-09-05T01:42:30.629Z,65.00
2018-09-05T01:45:05.071Z,65.00
2018-09-05T01:47:39.414Z,65.00
2018-09-05T01:50:13.763Z,65.00
2018-09-05T01:52:48.178Z,65.00
2018-09-05T01:55:22.570Z,65.10
2018-09-05T01:57:56.941Z,65.20
2018-09-05T02:00:33.486Z,65.20
2018-09-05T02:03:07.845Z,65.20
2018-09-05T02:05:42.218Z,65.20
2018-09-05T02:08:16.529Z,65.30
2018-09-05T02:10:50.959Z,65.30
2018-09-05T02:13:25.305Z,65.20
2018-09-05T02:15:59.693Z,65.30
2018-09-05T02:18:34.117Z,65.30
2018-09-05T02:21:08.470Z,65.40
2018-09-05T02:23:42.830Z,65.50
2018-09-05T02:26:17.170Z,65.30
2018-09-05T02:28:51.838Z,64.90
2018-09-05T02:31:26.226Z,66.10
2018-09-05T02:34:00.671Z,65.30
2018-09-05T02:36:35.053Z,65.40
2018-09-05T02:39:10.530Z,65.50
2018-09-05T02:41:44.951Z,65.40
2018-09-05T02:44:19.545Z,65.30
2018-09-05T02:46:53.918Z,65.30
2018-09-05T02:49:28.314Z,65.30
2018-09-05T02:52:02.649Z,65.20
2018-09-05T02:54:37.658Z,66.00
2018-09-05T02:57:12.052Z,65.20
2018-09-05T02:59:46.446Z,65.30
2018-09-05T03:02:20.842Z,65.30
2018-09-05T03:04:55.288Z,65.20
2018-09-05T03:07:29.676Z,65.10
2018-09-05T03:10:04.090Z,65.00
2018-09-05T03:12:38.484Z,65.20
2018-09-05T03:15:12.832Z,65.10
2018-09-05T03:17:47.197Z,65.00
2018-09-05T03:20:21.653Z,65.20
2018-09-05T03:22:56.039Z,65.20
2018-09-05T03:25:30.414Z,65.30
2018-09-05T03:28:04.751Z,65.30
2018-09-05T03:30:39.984Z,65.20
2018-09-05T03:33:14.365Z,65.40
2018-09-05T03:35:48.728Z,66.00
2018-09-05T03:38:23.102Z,65.40
2018-09-05T03:40:57.619Z,65.50
2018-09-05T03:43:32.005Z,65.50
2018-09-05T03:46:06.635Z,65.40
2018-09-05T03:48:41.000Z,65.40
2018-09-05T03:51:15.373Z,65.40
2018-09-05T03:53:49.739Z,65.40
2018-09-05T03:56:24.098Z,65.30
2018-09-05T03:58:58.522Z,65.30
2018-09-05T04:01:32.852Z,65.30
2018-09-05T04:04:07.313Z,65.40
2018-09-05T04:06:41.692Z,65.20
2018-09-05T04:09:16.078Z,65.20
2018-09-05T04:11:50.407Z,65.20
2018-09-05T04:14:24.745Z,65.00
2018-09-05T04:16:59.141Z,65.10
2018-09-05T04:19:33.502Z,65.10
2018-09-05T04:22:07.975Z,65.10
2018-09-05T04:24:42.312Z,65.30
2018-09-05T04:27:16.671Z,65.40
2018-09-05T04:29:51.375Z,65.40
2018-09-05T04:32:25.753Z,65.30
2018-09-05T04:35:00.254Z,65.30
2018-09-05T04:37:34.594Z,66.10
2018-09-05T04:40:09.060Z,66.00
2018-09-05T04:42:43.513Z,65.30
2018-09-05T04:45:18.042Z,65.20
2018-09-05T04:47:52.280Z,65.20
2018-09-05T04:50:26.689Z,65.10
2018-09-05T04:53:01.045Z,65.10
2018-09-05T04:55:35.435Z,65.10
2018-09-05T04:58:09.764Z,65.30
2018-09-05T05:00:44.131Z,65.30
2018-09-05T05:03:18.494Z,65.20
2018-09-05T05:05:53.114Z,65.00
2018-09-05T05:08:27.364Z,65.40
2018-09-05T05:11:01.937Z,65.30
2018-09-05T05:13:36.406Z,65.40
2018-09-05T05:16:42.919Z,65.30
2018-09-05T05:19:17.294Z,65.50
2018-09-05T05:21:51.606Z,65.40
2018-09-05T05:24:25.992Z,65.40
2018-09-05T05:27:00.321Z,65.70
2018-09-05T05:29:38.427Z,65.60
2018-09-05T05:32:12.747Z,65.70
2018-09-05T05:34:47.175Z,65.60
2018-09-05T05:37:21.535Z,65.40
2018-09-05T05:39:55.908Z,65.40
2018-09-05T05:42:30.296Z,65.40
2018-09-05T05:45:05.367Z,65.40
2018-09-05T05:47:39.723Z,65.40
2018-09-05T05:50:14.098Z,65.30
2018-09-05T05:52:48.522Z,65.90
2018-09-05T05:55:22.890Z,65.40
2018-09-05T05:57:57.174Z,65.60
2018-09-05T06:00:31.562Z,65.60
2018-09-05T06:03:06.009Z,65.60
2018-09-05T06:05:40.358Z,65.60
2018-09-05T06:08:14.698Z,65.70
2018-09-05T06:10:49.057Z,65.70
2018-09-05T06:13:23.415Z,65.80
2018-09-05T06:15:57.801Z,65.70
2018-09-05T06:18:32.223Z,65.70
2018-09-05T06:21:06.679Z,65.80
2018-09-05T06:23:41.124Z,65.70
2018-09-05T06:26:15.462Z,65.70
2018-09-05T06:28:49.848Z,65.60
2018-09-05T06:31:24.252Z,65.60
2018-09-05T06:33:58.618Z,65.50
2018-09-05T06:36:33.057Z,65.60
2018-09-05T06:39:09.682Z,65.60
2018-09-05T06:41:43.973Z,65.50
2018-09-05T06:44:18.298Z,65.40
2018-09-05T06:46:52.741Z,65.30
2018-09-05T06:49:27.125Z,65.20
2018-09-05T06:52:01.495Z,65.10
2018-09-05T06:54:35.835Z,65.10
2018-09-05T06:57:10.178Z,65.10
2018-09-05T06:59:44.600Z,65.10
2018-09-05T07:02:18.914Z,65.30
2018-09-05T07:04:53.366Z,65.40
2018-09-05T07:07:28.186Z,65.40
2018-09-05T07:10:02.595Z,65.30
2018-09-05T07:12:36.950Z,65.20
2018-09-05T07:15:11.322Z,65.20
2018-09-05T07:17:45.754Z,64.90
2018-09-05T07:20:20.159Z,65.00
2018-09-05T07:22:54.514Z,64.80
2018-09-05T07:25:28.899Z,64.80
2018-09-05T07:28:03.318Z,64.90
2018-09-05T07:30:37.901Z,64.90
2018-09-05T07:33:12.182Z,64.90
2018-09-05T07:35:46.622Z,65.00
2018-09-05T07:38:20.901Z,64.80
2018-09-05T07:40:55.359Z,64.70
2018-09-05T07:43:29.724Z,64.60
2018-09-05T07:46:04.094Z,64.10
2018-09-05T07:48:38.557Z,63.90
2018-09-05T07:51:12.971Z,63.90
2018-09-05T07:53:47.402Z,63.80
2018-09-05T07:56:21.870Z,63.90
2018-09-05T07:58:56.293Z,63.60
2018-09-05T08:01:30.898Z,63.50
2018-09-05T08:04:05.412Z,63.30
2018-09-05T08:06:39.754Z,62.70
2018-09-05T08:09:14.138Z,62.80
2018-09-05T08:11:48.528Z,62.60
2018-09-05T08:14:22.855Z,62.70
2018-09-05T08:16:57.205Z,62.50
2018-09-05T08:19:31.636Z,62.50
2018-09-05T08:22:06.057Z,62.40
2018-09-05T08:24:40.564Z,62.30
2018-09-05T08:27:15.029Z,62.20
2018-09-05T08:29:49.498Z,61.90
2018-09-05T08:32:23.842Z,61.90
2018-09-05T08:34:58.325Z,61.40
2018-09-05T08:37:32.903Z,60.80
2018-09-05T08:40:07.345Z,60.50
2018-09-05T08:42:42.156Z,60.40
2018-09-05T08:45:16.780Z,60.50
2018-09-05T08:47:50.956Z,60.50
2018-09-05T08:50:25.258Z,60.30
2018-09-05T08:52:59.700Z,60.20
2018-09-05T08:55:34.011Z,59.70
2018-09-05T08:58:08.391Z,59.70
2018-09-05T09:00:42.700Z,59.30
2018-09-05T09:03:17.134Z,59.20
2018-09-05T09:05:51.494Z,58.80
2018-09-05T09:08:25.837Z,58.60
2018-09-05T09:11:00.165Z,58.60
2018-09-05T09:13:34.542Z,58.30
2018-09-05T09:16:08.975Z,58.30
2018-09-05T09:18:43.436Z,58.30
2018-09-05T09:21:17.818Z,58.50
2018-09-05T09:23:52.158Z,58.40
2018-09-05T09:26:26.502Z,58.10
2018-09-05T09:29:01.119Z,57.40
2018-09-05T09:31:35.468Z,56.90
2018-09-05T09:34:09.822Z,56.60
2018-09-05T09:36:44.143Z,56.20
2018-09-05T09:39:18.572Z,55.90
2018-09-05T09:41:52.966Z,56.10
2018-09-05T09:44:27.354Z,56.50
2018-09-05T09:47:01.902Z,56.30
2018-09-05T09:49:36.273Z,56.60
2018-09-05T09:52:15.956Z,56.10
2018-09-05T09:54:51.715Z,55.90
2018-09-05T09:57:26.062Z,55.70
2018-09-05T10:00:00.434Z,55.20
2018-09-05T10:02:40.214Z,55.00
2018-09-05T10:05:19.759Z,54.90
2018-09-05T10:07:59.386Z,54.90
2018-09-05T10:10:39.089Z,54.30
2018-09-05T10:13:17.569Z,53.80
2018-09-05T10:15:57.315Z,54.00
2018-09-05T10:18:33.290Z,54.40
2018-09-05T10:21:07.848Z,54.70
2018-09-05T10:23:42.119Z,54.30
2018-09-05T10:26:16.547Z,53.40
2018-09-05T10:28:50.992Z,53.30
2018-09-05T10:31:25.454Z,53.40
2018-09-05T10:33:59.789Z,53.50
2018-09-05T10:36:34.526Z,53.60
2018-09-05T10:39:10.101Z,53.60
2018-09-05T10:41:44.538Z,53.00
2018-09-05T10:44:18.997Z,52.90
2018-09-05T10:46:53.317Z,52.10
2018-09-05T10:49:27.646Z,52.20
2018-09-05T10:52:06.409Z,52.10
2018-09-05T10:54:40.795Z,52.00
2018-09-05T10:57:15.187Z,51.80
2018-09-05T10:59:50.945Z,51.50
2018-09-05T11:02:30.814Z,51.30
2018-09-05T11:05:05.526Z,51.60
2018-09-05T11:07:39.935Z,51.30
2018-09-05T11:10:18.995Z,51.10
2018-09-05T11:12:53.461Z,51.00
2018-09-05T11:15:27.920Z,50.50
2018-09-05T11:18:02.403Z,50.90
2018-09-05T11:20:36.963Z,50.20
2018-09-05T11:23:11.422Z,49.70
2018-09-05T11:25:45.857Z,49.60
2018-09-05T11:28:20.293Z,49.50
2018-09-05T11:30:54.627Z,49.00
2018-09-05T11:33:29.114Z,48.70
2018-09-05T11:36:03.443Z,48.80
2018-09-05T11:38:38.093Z,48.40
2018-09-05T11:41:12.487Z,48.50
2018-09-05T11:43:47.041Z,48.40
2018-09-05T11:46:21.584Z,46.80
2018-09-05T11:48:56.045Z,46.50
2018-09-05T11:51:30.381Z,46.60
2018-09-05T11:54:04.888Z,47.10
2018-09-05T11:56:39.478Z,46.70
2018-09-05T11:59:13.858Z,46.10
2018-09-05T12:01:48.333Z,45.80
2018-09-05T12:04:22.848Z,45.30
2018-09-05T12:06:57.352Z,45.10
2018-09-05T12:09:33.544Z,44.40
2018-09-05T12:12:08.045Z,44.20
2018-09-05T12:14:42.488Z,44.20
2018-09-05T12:17:17.166Z,44.40
2018-09-05T12:19:52.621Z,44.40
2018-09-05T12:22:28.713Z,43.70
2018-09-05T12:25:06.644Z,43.10
2018-09-05T12:27:45.965Z,42.90
2018-09-05T12:30:29.592Z,43.40
2018-09-05T12:33:06.305Z,43.40
2018-09-05T12:35:43.271Z,42.90
2018-09-05T12:38:22.109Z,43.00
2018-09-05T12:41:12.071Z,42.50
2018-09-05T12:43:53.381Z,42.50
2018-09-05T12:46:29.146Z,42.80
2018-09-05T12:49:05.011Z,43.40
2018-09-05T12:51:42.119Z,44.30
2018-09-05T12:54:17.754Z,44.50
2018-09-05T12:56:54.528Z,44.70
2018-09-05T12:59:31.129Z,44.00
2018-09-05T13:02:06.027Z,43.70
2018-09-05T13:04:44.490Z,43.90
2018-09-05T13:07:21.449Z,43.90
2018-09-05T13:09:59.676Z,42.90
2018-09-05T13:12:36.182Z,43.00
2018-09-05T13:15:12.975Z,42.90
2018-09-05T13:17:51.078Z,44.00
2018-09-05T13:20:25.955Z,43.20
2018-09-05T13:23:01.719Z,42.90
2018-09-05T13:25:36.660Z,43.40
2018-09-05T13:28:11.899Z,43.40
2018-09-05T13:30:46.834Z,43.60
2018-09-05T13:33:21.781Z,43.00
2018-09-05T13:35:57.782Z,43.90
2018-09-05T13:38:33.483Z,44.30
2018-09-05T13:41:08.008Z,45.10
2018-09-05T13:43:42.415Z,44.70
2018-09-05T13:46:16.895Z,44.60
2018-09-05T13:48:51.358Z,44.80
2018-09-05T13:51:26.543Z,44.80
2018-09-05T13:54:01.038Z,44.00
2018-09-05T13:56:35.418Z,44.00
2018-09-05T13:59:09.801Z,41.80
2018-09-05T14:01:44.136Z,41.20
2018-09-05T14:04:18.499Z,40.80
2018-09-05T14:06:52.910Z,40.20
2018-09-05T14:09:27.336Z,39.90
2018-09-05T14:12:01.669Z,40.40
2018-09-05T14:14:36.067Z,40.30
2018-09-05T14:17:20.169Z,40.70
2018-09-05T14:19:54.536Z,41.30
2018-09-05T14:22:28.932Z,42.20
2018-09-05T14:25:03.392Z,42.80
2018-09-05T14:27:37.810Z,43.00
2018-09-05T14:30:12.083Z,43.30
2018-09-05T14:32:46.448Z,43.40
2018-09-05T14:35:20.806Z,43.90
2018-09-05T14:37:55.184Z,44.60
2018-09-05T14:40:29.586Z,44.40
2018-09-05T14:43:03.956Z,44.60
2018-09-05T14:45:38.306Z,44.80
2018-09-05T14:48:12.715Z,44.90
2018-09-05T14:50:47.082Z,45.30
2018-09-05T14:53:21.438Z,45.70
2018-09-05T14:55:56.041Z,45.70
2018-09-05T14:58:30.431Z,46.10
2018-09-05T15:01:04.827Z,46.60
2018-09-05T15:03:39.194Z,46.60
2018-09-05T15:06:13.614Z,46.50
2018-09-05T15:08:48.168Z,46.20
2018-09-05T15:11:22.556Z,46.50
2018-09-05T15:13:56.966Z,46.80
2018-09-05T15:16:31.401Z,47.00
2018-09-05T15:19:05.927Z,47.60
2018-09-05T15:21:40.322Z,48.00
2018-09-05T15:24:14.674Z,48.30
2018-09-05T15:26:49.027Z,48.70
2018-09-05T15:29:23.429Z,48.30
2018-09-05T15:31:57.879Z,48.10
2018-09-05T15:34:32.265Z,48.10
2018-09-05T15:37:06.646Z,48.00
2018-09-05T15:39:41.014Z,48.10
2018-09-05T15:42:15.510Z,48.10
2018-09-05T15:44:49.925Z,48.10
2018-09-05T15:47:24.270Z,48.30
2018-09-05T15:49:58.703Z,48.30
2018-09-05T15:52:33.085Z,48.40
2018-09-05T15:55:07.648Z,48.40
2018-09-05T15:57:43.036Z,48.30
2018-09-05T16:00:17.391Z,49.20
2018-09-05T16:02:51.810Z,48.80
2018-09-05T16:05:26.735Z,49.00
2018-09-05T16:08:01.098Z,49.20
2018-09-05T16:10:35.561Z,49.40
2018-09-05T16:13:10.168Z,49.30
2018-09-05T16:15:45.011Z,49.00
2018-09-05T16:18:19.486Z,49.20
2018-09-05T16:20:53.793Z,49.40
2018-09-05T16:23:29.786Z,49.50
2018-09-05T16:26:04.190Z,49.80
2018-09-05T16:28:38.868Z,50.00
2018-09-05T16:31:13.312Z,50.00
2018-09-05T16:33:47.865Z,50.40
2018-09-05T16:36:23.794Z,50.70
2018-09-05T16:38:58.137Z,50.80
2018-09-05T16:41:32.558Z,51.00
2018-09-05T16:44:06.962Z,50.90
2018-09-05T16:46:41.389Z,51.10
2018-09-05T16:49:15.842Z,51.00
2018-09-05T16:51:50.676Z,50.90
2018-09-05T16:54:30.276Z,50.80
2018-09-05T16:57:05.928Z,50.80
2018-09-05T16:59:40.375Z,50.80
2018-09-05T17:02:15.821Z,50.90
2018-09-05T17:04:50.706Z,50.90
2018-09-05T17:07:25.021Z,50.90
2018-09-05T17:09:59.638Z,51.00
2018-09-05T17:12:33.994Z,50.80
2018-09-05T17:15:08.363Z,50.90
2018-09-05T17:17:42.872Z,50.80
2018-09-05T17:20:17.399Z,50.60
2018-09-05T17:22:51.947Z,50.60
2018-09-05T17:25:26.317Z,50.40
2018-09-05T17:28:00.827Z,50.60
2018-09-05T17:30:35.253Z,50.60
2018-09-05T17:33:10.042Z,50.30
2018-09-05T17:35:44.830Z,50.50
2018-09-05T17:38:19.451Z,50.60
2018-09-05T17:40:55.698Z,50.60
2018-09-05T17:43:30.447Z,50.60
2018-09-05T17:46:05.260Z,50.60
2018-09-05T17:48:39.598Z,50.70
2018-09-05T17:51:14.260Z,50.90
2018-09-05T17:53:48.619Z,51.00
2018-09-05T17:56:23.268Z,50.90
2018-09-05T17:58:57.658Z,50.90
2018-09-05T18:01:32.207Z,51.00
2018-09-05T18:04:06.558Z,51.20
2018-09-05T18:06:41.904Z,51.30
2018-09-05T18:09:17.143Z,51.60
2018-09-05T18:11:52.525Z,51.60
2018-09-05T18:14:27.020Z,51.70
2018-09-05T18:17:02.097Z,51.60
2018-09-05T18:19:36.547Z,51.50
2018-09-05T18:22:11.022Z,51.60
2018-09-05T18:24:45.565Z,51.80
2018-09-05T18:27:20.005Z,51.90
2018-09-05T18:29:54.509Z,52.20
2018-09-05T18:32:29.230Z,52.20
2018-09-05T18:35:03.911Z,52.30
2018-09-05T18:37:38.361Z,52.40
2018-09-05T18:40:12.997Z,52.60
2018-09-05T18:42:47.919Z,52.60
2018-09-05T18:45:22.398Z,52.60
2018-09-05T18:47:56.933Z,52.70
2018-09-05T18:50:31.538Z,52.70
2018-09-05T18:53:10.535Z,52.70
2018-09-05T18:55:45.823Z,52.80
2018-09-05T18:58:21.769Z,53.10
2018-09-05T19:00:56.622Z,53.20
2018-09-05T19:03:31.333Z,53.30
2018-09-05T19:06:06.238Z,53.30
2018-09-05T19:08:41.032Z,53.20
2018-09-05T19:11:16.099Z,53.40
2018-09-05T19:13:51.623Z,53.50
2018-09-05T19:16:26.419Z,53.60
2018-09-05T19:19:00.828Z,53.70
2018-09-05T19:21:35.292Z,53.70
2018-09-05T19:24:09.775Z,53.80
2018-09-05T19:26:44.212Z,53.90
2018-09-05T19:29:18.840Z,53.90
2018-09-05T19:31:53.516Z,53.90
2018-09-05T19:34:28.043Z,54.10
2018-09-05T19:37:02.589Z,54.30
2018-09-05T19:39:36.954Z,54.30
2018-09-05T19:42:11.330Z,54.40
2018-09-05T19:44:45.686Z,54.60
2018-09-05T19:47:20.156Z,54.90
2018-09-05T19:49:54.526Z,54.90
2018-09-05T19:52:28.984Z,55.00
2018-09-05T19:55:03.355Z,55.10
2018-09-05T19:57:37.686Z,55.20
2018-09-05T20:00:12.221Z,55.40
2018-09-05T20:02:46.570Z,55.30
2018-09-05T20:05:21.068Z,55.30
2018-09-05T20:07:55.383Z,55.30
2018-09-05T20:10:30.043Z,55.50
2018-09-05T20:13:04.549Z,55.60
2018-09-05T20:15:38.912Z,55.80
2018-09-05T20:18:13.276Z,55.80
2018-09-05T20:20:47.610Z,55.90
2018-09-05T20:23:22.033Z,56.30
2018-09-05T20:25:56.382Z,55.90
2018-09-05T20:28:30.762Z,55.90
2018-09-05T20:31:05.341Z,56.00
2018-09-05T20:33:39.766Z,56.00
2018-09-05T20:36:14.235Z,56.00
2018-09-05T20:38:48.696Z,56.00
2018-09-05T20:41:23.059Z,56.00
2018-09-05T20:43:57.422Z,56.10
2018-09-05T20:46:31.791Z,56.20
2018-09-05T20:49:06.218Z,56.10
2018-09-05T20:51:40.600Z,56.10
2018-09-05T20:54:14.935Z,56.20
2018-09-05T20:56:49.284Z,56.30
2018-09-05T20:59:23.722Z,56.50
2018-09-05T21:01:58.173Z,56.60
2018-09-05T21:04:32.622Z,56.50
2018-09-05T21:07:07.338Z,57.10
2018-09-05T21:09:41.674Z,56.50
2018-09-05T21:12:16.099Z,56.80
2018-09-05T21:14:50.398Z,56.80
2018-09-05T21:17:24.770Z,56.90
2018-09-05T21:19:59.101Z,57.00
2018-09-05T21:22:33.552Z,57.10
2018-09-05T21:25:08.044Z,57.10
2018-09-05T21:27:42.424Z,57.20
2018-09-05T21:30:16.765Z,57.30
2018-09-05T21:32:51.186Z,57.50
2018-09-05T21:35:25.533Z,57.50
2018-09-05T21:37:59.972Z,57.60
2018-09-05T21:40:34.421Z,57.70
2018-09-05T21:43:08.843Z,57.80
2018-09-05T21:45:43.189Z,57.70
2018-09-05T21:48:17.591Z,57.70
2018-09-05T21:50:51.978Z,57.90
2018-09-05T21:53:26.355Z,58.10
2018-09-05T21:56:00.708Z,58.00
2018-09-05T21:58:35.148Z,58.20
2018-09-05T22:01:09.525Z,58.40
2018-09-05T22:03:43.881Z,58.60
2018-09-05T22:06:18.219Z,58.60
2018-09-05T22:08:52.555Z,58.70
2018-09-05T22:11:27.770Z,58.80
2018-09-05T22:14:02.146Z,59.00
2018-09-05T22:16:36.515Z,59.10
2018-09-05T22:19:10.857Z,59.00
2018-09-05T22:21:45.275Z,59.10
2018-09-05T22:24:19.658Z,59.20
2018-09-05T22:26:54.030Z,59.10
2018-09-05T22:29:28.662Z,59.20
2018-09-05T22:32:03.129Z,59.20
2018-09-05T22:34:37.491Z,59.10
2018-09-05T22:37:11.786Z,59.10
2018-09-05T22:39:46.241Z,59.10
2018-09-05T22:42:20.597Z,59.20
2018-09-05T22:45:06.001Z,59.20
2018-09-05T22:47:57.238Z,59.10
2018-09-05T22:51:14.259Z,59.20
2018-09-05T22:58:10.489Z,59.20
2018-09-05T23:02:58.107Z,59.10
2018-09-05T23:05:44.420Z,59.40
2018-09-05T23:08:39.238Z,59.60
2018-09-05T23:11:56.384Z,59.80
2018-09-05T23:14:41.942Z,59.50
2018-09-05T23:17:27.644Z,59.40
2018-09-05T23:21:25.557Z,59.50
2018-09-05T23:24:08.734Z,59.30
2018-09-05T23:26:43.097Z,59.50
2018-09-05T23:29:17.489Z,59.60
2018-09-05T23:31:51.946Z,59.60
2018-09-05T23:34:26.349Z,59.40
2018-09-05T23:37:00.724Z,59.30
2018-09-05T23:39:35.108Z,59.30
2018-09-05T23:42:09.500Z,59.30
2018-09-05T23:44:43.890Z,59.30
2018-09-05T23:47:18.268Z,59.50
2018-09-05T23:49:52.688Z,59.30
2018-09-05T23:52:27.145Z,59.30
2018-09-05T23:55:01.827Z,59.20
2018-09-05T23:57:36.199Z,59.30
